Latest Weather Observations for Lord Howe Island

IDN60801

Issued at 5:35 pm EDT Saturday 25 October 2014 (issued every 30 minutes, with the page automatically refreshed every 10 minutes)

About weather observations | Map of weather stations | Latest weather observations for NSW | Other Formats
Station Details ID: 200839 Name: LORD HOWE ISLAND AERO Lat: -31.54 Lon: 159.08 Height: 5.0 m
Data from the previous 72 hours. | See also: Recent months at Lord Howe Island
Date/Time
EDT
Temp
°C
App
Temp
°C
Dew
Point
Rel
Hum
%
Delta-T
°C
Wind Press
QNH
hPa
Press
MSL
hPa
Rain
since 9 am
mm
Dir
 
Spd
km/h
Gust
km/h
Spd
kts
Gust
kts
25/05:30pm 19.4 18.2 12.8 65 3.7 N 11 19 6 10 1020.4 - 0.0
25/05:00pm 19.4 18.1 13.8 70 3.2 NNE 13 26 7 14 1020.4 - 0.0
25/04:30pm 19.4 17.0 13.8 70 3.2 NNE 19 32 10 17 1020.4 - 0.0
25/04:00pm 19.4 17.6 13.2 67 3.5 NNE 15 30 8 16 1020.4 - 0.0
25/03:30pm 19.4 17.1 13.0 66 3.6 NNE 17 22 9 12 1020.4 - 0.0
25/03:00pm 19.7 17.3 12.6 63 4.0 NNE 17 22 9 12 1020.6 1020.6 0.0
25/02:30pm 19.7 17.1 13.2 66 3.7 NNE 19 22 10 12 1020.6 - 0.0
25/02:00pm 19.7 16.9 12.6 63 4.0 NNE 19 26 10 14 1021.0 - 0.0
25/01:30pm 19.8 17.4 12.5 62 4.1 NNE 17 24 9 13 1021.2 - 0.0
25/01:00pm 20.4 17.5 13.0 62 4.2 NNE 20 24 11 13 1021.2 - 0.0
25/12:30pm 20.8 17.5 12.8 60 4.5 NNE 22 28 12 15 1021.3 - 0.0
25/12:00pm 21.2 17.2 13.1 60 4.6 NE 26 32 14 17 1021.4 1021.4 0.0
25/11:30am 21.3 18.2 13.4 60 4.5 NE 22 26 12 14 1021.9 - 0.0
25/11:00am 21.6 19.0 13.8 61 4.5 NE 20 24 11 13 1022.2 - 0.0
25/10:30am 20.8 17.9 12.8 60 4.5 NE 20 24 11 13 1022.4 - 0.0
25/10:00am 20.7 17.9 12.5 59 4.6 NNE 19 24 10 13 1022.7 - 0.0
25/09:30am 20.9 18.5 12.8 60 4.6 NNE 17 20 9 11 1023.0 - 0.0
25/09:00am 20.1 18.5 11.6 58 4.7 N 11 15 6 8 1023.2 1023.2 0.0
25/08:30am 19.8 18.7 12.0 60 4.3 NNW 9 13 5 7 1023.2 - 0.0
25/08:00am 18.9 17.9 12.2 65 3.7 NNE 9 15 5 8 1023.3 - 0.0
25/07:30am 18.7 18.5 13.6 72 2.9 NNE 7 15 4 8 1023.4 - 0.0
25/07:00am 18.2 18.4 13.0 71 2.9 N 4 13 2 7 1023.1 - 0.0
25/06:30am 18.2 18.0 13.0 71 2.9 N 6 9 3 5 1023.1 - 0.0
25/06:00am 17.8 16.8 12.4 70 3.0 NNE 9 11 5 6 1022.3 1022.3 0.0
25/05:30am 17.3 16.3 12.4 73 2.7 NE 9 13 5 7 1021.8 - 0.0
25/05:00am 17.3 16.2 12.0 71 2.9 NNE 9 13 5 7 1021.5 - 0.0
25/04:30am 17.3 16.2 11.8 70 3.0 NNE 9 15 5 8 1021.3 - 0.0
25/04:00am 17.6 15.7 11.9 69 3.1 NNE 13 17 7 9 1021.2 - 0.0
25/03:30am 17.4 16.2 11.7 69 3.1 NNE 9 13 5 7 1021.3 - 0.0
25/03:00am 16.8 15.8 12.2 74 2.5 NE 9 17 5 9 1021.4 1021.4 0.0
25/02:30am 17.3 15.1 12.2 72 2.8 NE 15 19 8 10 1021.3 - 0.0
25/02:00am 17.0 15.3 12.3 74 2.6 ENE 13 17 7 9 1021.6 - 0.0
25/01:30am 16.7 15.7 12.3 75 2.4 E 9 13 5 7 1022.2 - 0.0
25/01:00am 16.9 15.5 12.1 73 2.6 ENE 11 17 6 9 1022.5 - 0.0
25/12:30am 14.7 15.1 11.1 79 1.9 CALM 0 0 0 0 1023.1 - 0.0
25/12:00am 14.5 14.0 10.9 79 1.9 E 4 7 2 4 1023.3 1023.3 0.0
 
Date/Time
EDT
Temp
°C
App
Temp
°C
Dew
Point
Rel
Hum
%
Delta-T
°C
Wind Press
QNH
hPa
Press
MSL
hPa
Rain
since 9 am
mm
Dir
 
Spd
km/h
Gust
km/h
Spd
kts
Gust
kts
24/11:30pm 14.2 14.5 10.8 80 1.8 CALM 0 0 0 0 1023.5 - 0.0
24/11:00pm 13.5 13.7 10.6 82 1.5 CALM 0 0 0 0 1023.6 - 0.0
24/10:30pm 13.2 13.4 10.5 84 1.4 CALM 0 0 0 0 1023.8 - 0.0
24/10:00pm 14.0 14.1 10.3 78 1.9 CALM 0 0 0 0 1023.9 - 0.0
24/09:30pm 15.2 14.2 10.4 73 2.5 SSE 6 7 3 4 1023.8 - 0.0
24/09:00pm 15.6 14.4 10.2 70 2.8 SE 7 9 4 5 1023.8 1023.8 0.0
24/08:30pm 15.1 14.9 10.3 73 2.5 SE 2 9 1 5 1023.6 - 0.0
24/08:00pm 15.4 14.7 10.2 71 2.7 ESE 4 9 2 5 1023.3 - 0.0
24/07:30pm 15.1 14.5 10.5 74 2.4 NE 4 6 2 3 1023.0 - 0.0
24/07:00pm 17.0 15.6 9.7 62 3.8 SE 7 9 4 5 1023.1 - 0.0
24/06:30pm 18.0 16.1 8.9 55 4.7 ESE 9 13 5 7 1022.9 - 0.0
24/06:00pm 18.3 16.6 10.0 58 4.4 E 9 11 5 6 1022.8 1022.8 0.0
24/05:30pm 19.1 16.9 9.4 53 5.1 ENE 11 13 6 7 1022.7 - 0.0
24/05:00pm 19.5 17.4 9.7 53 5.2 ENE 11 13 6 7 1022.6 - 0.0
24/04:30pm 19.8 17.1 9.1 50 5.6 E 13 19 7 10 1022.7 - 0.0
24/04:00pm 19.8 17.0 8.4 47 5.9 E 13 19 7 10 1022.8 - 0.0
24/03:30pm 20.1 17.5 9.3 49 5.7 E 13 19 7 10 1022.8 - 0.0
24/03:00pm 20.0 17.3 8.9 48 5.8 E 13 17 7 9 1023.1 1023.1 0.0
24/02:30pm 20.3 17.7 9.3 49 5.8 E 13 17 7 9 1023.3 - 0.0
24/02:00pm 20.1 17.7 10.0 52 5.4 ENE 13 17 7 9 1023.4 - 0.0
24/01:30pm 19.7 17.1 9.2 50 5.5 ENE 13 17 7 9 1023.7 - 0.0
24/01:00pm 20.1 17.7 10.2 53 5.3 E 13 17 7 9 1024.1 - 0.0
24/12:30pm 19.4 17.2 10.9 58 4.6 ENE 13 19 7 10 1024.2 - 0.0
24/12:00pm 19.8 17.0 11.4 58 4.6 E 17 24 9 13 1024.4 1024.4 0.0
24/11:30am 20.0 17.8 12.1 60 4.4 ENE 15 20 8 11 1024.4 - 0.0
24/11:00am 20.1 17.6 12.2 60 4.4 E 17 20 9 11 1024.7 - 0.0
24/10:30am 19.0 16.0 10.8 59 4.4 E 17 24 9 13 1025.1 - 0.0
24/10:00am 19.5 16.7 10.1 54 5.0 E 15 19 8 10 1025.3 - 0.0
24/09:30am 18.4 18.0 12.4 68 3.3 S 6 9 3 5 1025.3 - 0.0
24/09:00am 17.1 15.6 12.0 72 2.8 SE 11 17 6 9 1025.3 1025.3 0.2
24/08:30am 18.5 16.1 11.3 63 3.9 E 15 20 8 11 1025.0 - 0.2
24/08:00am 18.3 15.6 10.4 60 4.2 E 15 22 8 12 1024.7 - 0.2
24/07:30am 19.0 17.1 10.4 57 4.6 E 11 17 6 9 1024.5 - 0.2
24/07:00am 17.7 15.9 11.0 65 3.6 E 11 17 6 9 1024.1 - 0.2
24/06:30am 12.9 13.5 12.0 94 0.5 CALM 0 0 0 0 1024.0 - 0.2
24/06:00am 11.1 11.2 10.1 94 0.5 CALM 0 0 0 0 1023.8 1023.8 0.2
24/05:30am 10.7 10.7 9.9 95 0.4 CALM 0 0 0 0 1023.4 - 0.2
24/05:00am 10.9 10.9 9.7 92 0.6 CALM 0 0 0 0 1023.2 - 0.2
24/04:30am 11.3 11.4 10.1 92 0.6 CALM 0 0 0 0 1022.6 - 0.2
24/04:00am 11.3 11.4 10.1 92 0.6 CALM 0 0 0 0 1022.7 - 0.2
24/03:30am 11.6 11.7 10.0 90 0.8 CALM 0 0 0 0 1022.5 - 0.2
24/03:00am 12.0 12.2 10.4 90 0.8 CALM 0 0 0 0 1022.9 1022.9 0.2
24/02:30am 12.5 12.7 10.4 87 1.1 CALM 0 0 0 0 1023.0 - 0.2
24/02:00am 14.0 14.4 11.4 84 1.4 CALM 0 0 0 0 1023.2 - 0.2
24/01:30am 14.8 14.0 11.2 79 1.9 ESE 6 7 3 4 1023.4 - 0.2
24/01:00am 16.3 15.2 10.6 69 3.0 SE 7 9 4 5 1023.4 - 0.2
24/12:30am 17.0 15.9 10.6 66 3.4 SE 7 9 4 5 1023.7 - 0.2
24/12:00am 17.1 15.5 10.3 64 3.6 SE 9 11 5 6 1023.8 1023.8 0.2
 
Date/Time
EDT
Temp
°C
App
Temp
°C
Dew
Point
Rel
Hum
%
Delta-T
°C
Wind Press
QNH
hPa
Press
MSL
hPa
Rain
since 9 am
mm
Dir
 
Spd
km/h
Gust
km/h
Spd
kts
Gust
kts
23/11:30pm 15.9 14.9 11.0 72 2.6 SE 7 9 4 5 1023.6 - 0.2
23/11:00pm 16.0 15.2 11.1 72 2.6 SE 6 7 3 4 1023.6 - 0.2
23/10:30pm 16.6 15.5 10.6 67 3.2 SE 7 11 4 6 1023.7 - 0.2
23/10:00pm 16.2 15.1 10.7 70 2.9 SE 7 13 4 7 1023.6 - 0.2
23/09:30pm 16.6 15.5 10.6 67 3.2 SE 7 13 4 7 1023.5 - 0.2
23/09:00pm 16.7 15.5 10.2 65 3.4 SE 7 11 4 6 1023.3 1023.3 0.2
23/08:30pm 16.2 14.7 10.5 69 3.0 SE 9 13 5 7 1022.9 - 0.2
23/08:00pm 16.8 15.2 10.1 64 3.5 SE 9 13 5 7 1022.6 - 0.2
23/07:30pm 16.6 15.4 10.3 66 3.3 SE 7 11 4 6 1022.2 - 0.2
23/07:00pm 16.6 15.4 10.3 66 3.3 SE 7 11 4 6 1022.0 - 0.2
23/06:30pm 17.4 15.4 10.2 62 3.8 ESE 11 15 6 8 1021.7 - 0.2
23/06:00pm 17.7 15.5 10.8 64 3.7 E 13 19 7 10 1021.5 1021.5 0.2
23/05:30pm 18.3 15.4 10.9 62 4.0 E 17 22 9 12 1021.3 - 0.2
23/05:00pm 18.7 15.0 10.0 57 4.6 E 20 28 11 15 1021.2 - 0.2
23/04:30pm 19.0 15.4 10.4 57 4.6 E 20 28 11 15 1020.9 - 0.2
23/04:00pm 20.0 18.5 9.2 49 5.7 SSW 7 15 4 8 1020.7 - 0.2
23/03:30pm 20.1 18.4 9.8 51 5.5 NE 9 22 5 12 1020.6 - 0.2
23/03:00pm 20.3 18.5 9.6 50 5.7 SW 9 17 5 9 1021.0 1021.0 0.2
23/02:30pm 19.9 17.9 10.0 53 5.3 SW 11 17 6 9 1021.3 - 0.2
23/02:00pm 18.9 16.4 9.6 54 4.9 S 13 19 7 10 1021.6 - 0.2
23/01:30pm 20.1 18.3 10.7 54 5.1 ESE 11 24 6 13 1021.8 - 0.2
23/01:00pm 19.6 18.5 11.8 60 4.3 E 9 15 5 8 1022.0 - 0.2
23/12:30pm 18.9 17.6 11.4 61 4.1 SSW 9 15 5 8 1022.4 - 0.2
23/12:00pm 18.7 16.8 10.5 59 4.4 E 11 24 6 13 1022.8 1022.8 0.2
23/11:30am 18.8 15.9 11.0 60 4.2 E 17 24 9 13 1023.0 - 0.0
23/11:00am 18.5 16.9 11.5 63 3.8 E 11 19 6 10 1023.3 - 0.0
23/10:30am 18.6 15.8 11.2 62 4.0 E 17 20 9 11 1023.4 - 0.0
23/10:00am 18.4 16.7 11.2 63 3.9 E 11 17 6 9 1023.4 - 0.0
23/09:30am 18.6 18.7 10.1 57 4.5 CALM 0 6 0 3 1023.4 - 0.0
23/09:00am 18.4 18.4 9.9 57 4.5 CALM 0 0 0 0 1023.4 1023.4 0.2
23/08:30am 17.5 17.3 10.3 62 3.8 SE 2 6 1 3 1023.2 - 0.2
23/08:00am 18.0 18.2 10.5 61 4.0 CALM 0 0 0 0 1023.1 - 0.2
23/07:30am 18.5 16.7 9.3 55 4.8 E 9 11 5 6 1022.9 - 0.2
23/07:00am 17.1 17.5 11.4 69 3.1 CALM 0 0 0 0 1022.6 - 0.2
23/06:30am 16.1 15.6 12.1 77 2.2 SE 6 7 3 4 1022.4 - 0.2
23/06:00am 16.1 14.9 10.2 68 3.1 SE 7 9 4 5 1022.0 1022.0 0.2
23/05:30am 14.7 15.0 10.9 78 2.0 CALM 0 0 0 0 1021.7 - 0.2
23/05:00am 15.8 14.5 10.1 69 3.0 SE 7 7 4 4 1021.6 - 0.2
23/04:30am 16.5 14.6 8.9 61 3.9 SE 9 9 5 5 1021.6 - 0.2
23/04:00am 16.3 14.0 9.1 62 3.7 SE 11 13 6 7 1021.6 - 0.2
23/03:30am 16.2 14.1 9.9 66 3.3 SE 11 13 6 7 1021.4 - 0.2
23/03:00am 16.2 14.6 10.1 67 3.2 SE 9 13 5 7 1021.7 1021.7 0.2
23/02:30am 16.5 14.2 10.4 67 3.2 SE 13 15 7 8 1021.9 - 0.2
23/02:00am 16.4 14.2 10.8 69 3.0 SE 13 15 7 8 1022.2 - 0.2
23/01:30am 16.3 13.7 9.5 64 3.5 SE 13 17 7 9 1022.6 - 0.2
23/01:00am 16.3 14.3 10.0 66 3.3 SE 11 15 6 8 1022.8 - 0.2
23/12:30am 16.0 13.7 10.5 70 2.9 SE 13 17 7 9 1023.2 - 0.2
23/12:00am 16.3 14.4 10.4 68 3.1 SE 11 17 6 9 1023.5 1023.5 0.2
 
Date/Time
EDT
Temp
°C
App
Temp
°C
Dew
Point
Rel
Hum
%
Delta-T
°C
Wind Press
QNH
hPa
Press
MSL
hPa
Rain
since 9 am
mm
Dir
 
Spd
km/h
Gust
km/h
Spd
kts
Gust
kts
22/11:30pm 16.2 14.7 12.0 76 2.3 SE 11 17 6 9 1023.8 - 0.2
22/11:00pm 15.7 15.9 13.2 85 1.4 ESE 4 9 2 5 1024.0 - 0.2
22/10:30pm 16.3 15.4 11.3 72 2.7 ESE 7 11 4 6 1024.3 - 0.0
22/10:00pm 16.5 15.5 11.1 70 2.9 ESE 7 11 4 6 1024.3 - 0.0
22/09:30pm 16.5 15.7 11.1 70 2.9 E 6 15 3 8 1024.3 - 0.0
22/09:00pm 16.3 15.3 11.0 71 2.8 SE 7 13 4 7 1024.3 1024.3 0.0
22/08:30pm 16.6 15.5 10.8 68 3.1 SE 7 13 4 7 1024.2 - 0.0
22/08:00pm 16.7 15.3 10.9 68 3.1 ESE 9 13 5 7 1024.2 - 0.0
22/07:30pm 16.3 15.8 10.6 69 3.0 SE 4 9 2 5 1024.1 - 0.0
22/07:00pm 16.7 14.9 10.7 67 3.2 ESE 11 17 6 9 1023.8 - 0.0
22/06:30pm 16.8 14.5 10.6 67 3.3 ESE 13 22 7 12 1023.5 - 0.0
22/06:00pm 17.3 15.2 11.2 67 3.3 E 13 22 7 12 1023.5 1023.5 0.0

Other Formats:

Comma delimited format used in spreadsheet applications
http://www.bom.gov.au/fwo/IDN60801/IDN60801.94995.axf

JavaScript Object Notation format (JSON) in row-major order
http://www.bom.gov.au/fwo/IDN60801/IDN60801.94995.json